createdAt,value
2018-09-01T00:01:36.670Z,13.20
2018-09-01T00:04:06.359Z,13.10
2018-09-01T00:06:35.855Z,13.10
2018-09-01T00:09:06.328Z,13.10
2018-09-01T00:11:36.048Z,13.10
2018-09-01T00:14:06.023Z,13.00
2018-09-01T00:16:35.663Z,13.00
2018-09-01T00:19:05.335Z,13.00
2018-09-01T00:21:34.939Z,13.00
2018-09-01T00:24:10.493Z,13.00
2018-09-01T00:26:43.320Z,13.00
2018-09-01T00:29:12.981Z,13.00
2018-09-01T00:31:42.777Z,13.00
2018-09-01T00:34:12.619Z,13.00
2018-09-01T00:36:42.076Z,13.00
2018-09-01T00:39:11.752Z,13.00
2018-09-01T00:41:41.327Z,13.00
2018-09-01T00:44:11.961Z,12.90
2018-09-01T00:46:41.667Z,13.00
2018-09-01T00:49:11.372Z,13.00
2018-09-01T00:51:41.016Z,13.00
2018-09-01T00:54:10.695Z,13.10
2018-09-01T00:56:40.425Z,13.10
2018-09-01T00:59:10.104Z,13.10
2018-09-01T01:01:39.805Z,13.10
2018-09-01T01:04:09.341Z,13.10
2018-09-01T01:06:39.040Z,13.10
2018-09-01T01:09:08.643Z,13.10
2018-09-01T01:11:39.061Z,13.10
2018-09-01T01:14:08.840Z,13.00
2018-09-01T01:16:38.416Z,13.00
2018-09-01T01:19:14.559Z,12.90
2018-09-01T01:21:44.191Z,12.90
2018-09-01T01:24:14.209Z,12.90
2018-09-01T01:26:43.818Z,12.80
2018-09-01T01:29:13.394Z,12.90
2018-09-01T01:31:43.082Z,12.80
2018-09-01T01:34:12.741Z,12.80
2018-09-01T01:36:42.290Z,12.80
2018-09-01T01:39:12.010Z,12.70
2018-09-01T01:41:41.717Z,12.70
2018-09-01T01:44:11.887Z,12.70
2018-09-01T01:46:41.537Z,12.70
2018-09-01T01:49:11.035Z,12.50
2018-09-01T01:51:41.107Z,12.50
2018-09-01T01:54:10.770Z,12.40
2018-09-01T01:56:40.408Z,12.40
2018-09-01T01:59:10.040Z,12.30
2018-09-01T02:01:40.229Z,12.20
2018-09-01T02:04:09.994Z,12.30
2018-09-01T02:06:39.787Z,12.20
2018-09-01T02:09:09.298Z,12.20
2018-09-01T02:11:38.872Z,12.20
2018-09-01T02:14:08.561Z,12.20
2018-09-01T02:16:38.081Z,12.20
2018-09-01T02:19:08.145Z,12.20
2018-09-01T02:21:37.772Z,12.20
2018-09-01T02:24:07.841Z,12.10
2018-09-01T02:26:37.652Z,12.10
2018-09-01T02:29:07.685Z,12.10
2018-09-01T02:31:37.498Z,12.00
2018-09-01T02:34:07.199Z,12.00
2018-09-01T02:36:36.911Z,12.00
2018-09-01T02:39:07.413Z,11.90
2018-09-01T02:41:37.030Z,11.90
2018-09-01T02:44:09.633Z,11.90
2018-09-01T02:46:39.328Z,11.80
2018-09-01T02:49:09.010Z,11.80
2018-09-01T02:51:38.616Z,11.70
2018-09-01T02:54:08.236Z,11.70
2018-09-01T02:56:37.741Z,11.60
2018-09-01T02:59:07.330Z,11.60
2018-09-01T03:01:37.807Z,11.60
2018-09-01T03:04:08.177Z,11.50
2018-09-01T03:06:50.429Z,11.60
2018-09-01T03:09:20.651Z,11.60
2018-09-01T03:11:50.976Z,11.60
2018-09-01T03:14:21.087Z,11.70
2018-09-01T03:16:51.169Z,11.70
2018-09-01T03:19:20.822Z,11.70
2018-09-01T03:21:50.627Z,11.70
2018-09-01T03:24:20.312Z,11.70
2018-09-01T03:26:49.843Z,11.70
2018-09-01T03:29:19.426Z,11.70
2018-09-01T03:31:49.056Z,11.70
2018-09-01T03:34:18.588Z,11.70
2018-09-01T03:36:48.033Z,11.70
2018-09-01T03:39:17.569Z,11.70
2018-09-01T03:41:47.021Z,11.70
2018-09-01T03:44:16.511Z,11.70
2018-09-01T03:46:46.167Z,11.80
2018-09-01T03:49:15.645Z,11.80
2018-09-01T03:51:45.399Z,11.90
2018-09-01T03:54:14.887Z,11.90
2018-09-01T03:56:45.270Z,12.00
2018-09-01T03:59:14.901Z,12.10
2018-09-01T04:01:47.606Z,12.10
2018-09-01T04:04:17.482Z,12.20
2018-09-01T04:06:47.129Z,12.20
2018-09-01T04:09:16.757Z,12.20
2018-09-01T04:11:46.576Z,12.20
2018-09-01T04:14:16.274Z,12.30
2018-09-01T04:16:45.994Z,12.30
2018-09-01T04:19:22.261Z,12.30
2018-09-01T04:21:52.607Z,12.30
2018-09-01T04:24:22.267Z,12.40
2018-09-01T04:26:51.862Z,12.40
2018-09-01T04:29:21.506Z,12.40
2018-09-01T04:31:51.223Z,12.40
2018-09-01T04:34:20.799Z,12.40
2018-09-01T04:36:50.960Z,12.30
2018-09-01T04:39:21.459Z,12.30
2018-09-01T04:41:50.949Z,12.20
2018-09-01T04:44:20.492Z,12.20
2018-09-01T04:46:50.818Z,12.10
2018-09-01T04:49:20.492Z,12.00
2018-09-01T04:51:50.006Z,11.90
2018-09-01T04:54:19.615Z,11.90
2018-09-01T04:56:49.321Z,11.90
2018-09-01T04:59:18.958Z,11.90
2018-09-01T05:01:48.921Z,11.90
2018-09-01T05:04:18.673Z,11.90
2018-09-01T05:06:48.364Z,12.00
2018-09-01T05:09:19.118Z,12.00
2018-09-01T05:11:48.722Z,12.00
2018-09-01T05:14:18.424Z,12.00
2018-09-01T05:16:48.278Z,12.00
2018-09-01T05:19:17.989Z,12.10
2018-09-01T05:21:47.653Z,12.20
2018-09-01T05:24:17.200Z,12.20
2018-09-01T05:26:46.786Z,12.30
2018-09-01T05:29:16.508Z,12.30
2018-09-01T05:31:46.099Z,12.40
2018-09-01T05:34:16.084Z,12.40
2018-09-01T05:36:45.583Z,12.50
2018-09-01T05:39:15.327Z,12.60
2018-09-01T05:41:44.901Z,12.70
2018-09-01T05:44:14.479Z,12.80
2018-09-01T05:46:44.137Z,12.90
2018-09-01T05:49:13.617Z,13.00
2018-09-01T05:51:43.376Z,13.10
2018-09-01T05:54:13.067Z,13.30
2018-09-01T05:56:42.677Z,13.40
2018-09-01T05:59:12.412Z,13.50
2018-09-01T06:01:42.029Z,13.50
2018-09-01T06:04:11.735Z,13.60
2018-09-01T06:06:41.261Z,13.70
2018-09-01T06:09:11.346Z,13.80
2018-09-01T06:11:41.051Z,14.00
2018-09-01T06:14:10.595Z,14.20
2018-09-01T06:16:40.168Z,15.30
2018-09-01T06:19:09.945Z,17.40
2018-09-01T06:21:40.164Z,19.60
2018-09-01T06:24:09.816Z,21.30
2018-09-01T06:26:39.421Z,22.70
2018-09-01T06:29:12.952Z,24.50
2018-09-01T06:31:46.573Z,25.80
2018-09-01T06:34:16.676Z,26.30
2018-09-01T06:36:46.152Z,27.40
2018-09-01T06:39:15.937Z,28.60
2018-09-01T06:41:45.555Z,29.70
2018-09-01T06:44:16.155Z,29.70
2018-09-01T06:46:46.021Z,30.10
2018-09-01T06:49:16.626Z,30.30
2018-09-01T06:51:46.446Z,31.00
2018-09-01T06:54:16.061Z,30.80
2018-09-01T06:56:45.826Z,30.30
2018-09-01T06:59:15.427Z,30.60
2018-09-01T07:01:44.996Z,31.30
2018-09-01T07:04:14.681Z,31.40
2018-09-01T07:06:44.400Z,32.30
2018-09-01T07:09:14.020Z,31.50
2018-09-01T07:11:43.984Z,31.20
2018-09-01T07:14:13.713Z,30.20
2018-09-01T07:16:43.172Z,30.80
2018-09-01T07:19:12.765Z,30.80
2018-09-01T07:21:42.317Z,31.20
2018-09-01T07:24:11.956Z,32.00
2018-09-01T07:26:41.562Z,32.70
2018-09-01T07:29:11.297Z,32.40
2018-09-01T07:31:40.936Z,32.30
2018-09-01T07:34:10.490Z,33.10
2018-09-01T07:36:40.693Z,33.60
2018-09-01T07:39:10.450Z,33.90
2018-09-01T07:41:40.022Z,33.50
2018-09-01T07:44:09.696Z,33.10
2018-09-01T07:46:39.381Z,33.30
2018-09-01T07:49:08.994Z,33.10
2018-09-01T07:51:38.592Z,32.60
2018-09-01T07:54:08.152Z,32.90
2018-09-01T07:56:37.681Z,33.50
2018-09-01T07:59:07.294Z,33.70
2018-09-01T08:01:36.993Z,34.00
2018-09-01T08:04:06.837Z,34.50
2018-09-01T08:06:36.431Z,34.90
2018-09-01T08:09:09.109Z,35.00
2018-09-01T08:11:38.845Z,34.90
2018-09-01T08:14:08.617Z,35.80
2018-09-01T08:16:38.302Z,36.20
2018-09-01T08:19:08.037Z,35.50
2018-09-01T08:21:37.676Z,36.40
2018-09-01T08:24:07.393Z,36.90
2018-09-01T08:26:37.997Z,36.80
2018-09-01T08:29:07.677Z,37.20
2018-09-01T08:31:37.361Z,37.20
2018-09-01T08:34:07.792Z,36.60
2018-09-01T08:36:37.548Z,36.50
2018-09-01T08:39:08.760Z,37.00
2018-09-01T08:41:38.386Z,36.20
2018-09-01T08:44:08.753Z,36.20
2018-09-01T08:46:38.447Z,35.90
2018-09-01T08:49:08.133Z,36.10
2018-09-01T08:51:37.884Z,36.50
2018-09-01T08:54:07.586Z,35.30
2018-09-01T08:56:37.176Z,35.50
2018-09-01T08:59:06.978Z,35.20
2018-09-01T09:01:36.488Z,35.70
2018-09-01T09:04:05.984Z,35.50
2018-09-01T09:06:35.514Z,35.40
2018-09-01T09:09:06.346Z,35.40
2018-09-01T09:11:36.443Z,35.90
2018-09-01T09:14:05.956Z,35.40
2018-09-01T09:16:35.752Z,36.10
2018-09-01T09:19:05.924Z,36.60
2018-09-01T09:21:42.019Z,35.10
2018-09-01T09:24:11.547Z,35.80
2018-09-01T09:26:41.106Z,36.10
2018-09-01T09:29:11.260Z,36.60
2018-09-01T09:31:41.004Z,37.40
2018-09-01T09:34:10.683Z,37.50
2018-09-01T09:36:40.321Z,38.10
2018-09-01T09:39:10.971Z,37.70
2018-09-01T09:41:41.521Z,38.40
2018-09-01T09:44:11.201Z,38.50
2018-09-01T09:46:40.694Z,37.30
2018-09-01T09:49:10.429Z,37.00
2018-09-01T09:51:40.034Z,37.50
2018-09-01T09:54:09.743Z,36.60
2018-09-01T09:56:39.537Z,35.60
2018-09-01T09:59:09.661Z,35.10
2018-09-01T10:01:41.575Z,34.40
2018-09-01T10:04:12.584Z,34.40
2018-09-01T10:06:42.263Z,33.90
2018-09-01T10:09:15.582Z,32.30
2018-09-01T10:11:45.210Z,30.50
2018-09-01T10:14:15.524Z,29.20
2018-09-01T10:16:45.271Z,29.70
2018-09-01T10:19:15.135Z,30.70
2018-09-01T10:21:44.716Z,30.20
2018-09-01T10:24:14.341Z,29.00
2018-09-01T10:26:44.017Z,27.70
2018-09-01T10:29:13.617Z,26.60
2018-09-01T10:31:43.134Z,25.60
2018-09-01T10:34:12.765Z,25.00
2018-09-01T10:36:42.456Z,24.50
2018-09-01T10:39:12.292Z,23.90
2018-09-01T10:41:42.303Z,23.80
2018-09-01T10:44:12.268Z,23.80
2018-09-01T10:46:41.823Z,24.20
2018-09-01T10:49:11.449Z,26.00
2018-09-01T10:51:41.249Z,28.60
2018-09-01T10:54:10.907Z,30.30
2018-09-01T10:56:40.379Z,30.40
2018-09-01T10:59:16.343Z,30.40
2018-09-01T11:01:45.857Z,30.20
2018-09-01T11:04:15.385Z,29.80
2018-09-01T11:06:45.066Z,31.00
2018-09-01T11:09:14.603Z,32.20
2018-09-01T11:11:44.229Z,33.10
2018-09-01T11:14:14.481Z,34.00
2018-09-01T11:16:44.201Z,34.10
2018-09-01T11:19:13.925Z,34.90
2018-09-01T11:21:43.513Z,34.20
2018-09-01T11:24:13.125Z,32.20
2018-09-01T11:26:45.768Z,30.20
2018-09-01T11:29:15.412Z,30.60
2018-09-01T11:31:45.050Z,31.60
2018-09-01T11:34:14.669Z,32.60
2018-09-01T11:36:44.222Z,31.30
2018-09-01T11:39:13.937Z,30.70
2018-09-01T11:41:43.636Z,29.40
2018-09-01T11:44:13.437Z,27.70
2018-09-01T11:46:43.181Z,26.80
2018-09-01T11:49:12.876Z,26.10
2018-09-01T11:51:42.357Z,25.50
2018-09-01T11:54:11.903Z,25.20
2018-09-01T11:56:41.507Z,25.00
2018-09-01T11:59:11.189Z,24.70
2018-09-01T12:01:40.829Z,24.60
2018-09-01T12:04:10.389Z,24.40
2018-09-01T12:06:39.991Z,24.50
2018-09-01T12:09:09.683Z,24.40
2018-09-01T12:11:39.495Z,24.80
2018-09-01T12:14:09.428Z,24.90
2018-09-01T12:16:39.098Z,24.40
2018-09-01T12:19:08.784Z,24.20
2018-09-01T12:21:38.334Z,24.10
2018-09-01T12:24:07.956Z,24.10
2018-09-01T12:26:37.642Z,24.30
2018-09-01T12:29:07.341Z,24.00
2018-09-01T12:31:37.110Z,23.90
2018-09-01T12:34:07.246Z,23.70
2018-09-01T12:36:37.495Z,23.80
2018-09-01T12:39:07.501Z,24.30
2018-09-01T12:41:37.221Z,24.90
2018-09-01T12:44:07.991Z,25.10
2018-09-01T12:46:37.591Z,25.10
2018-09-01T12:49:07.383Z,25.20
2018-09-01T12:51:36.946Z,25.40
2018-09-01T12:54:06.964Z,25.70
2018-09-01T12:56:36.711Z,25.90
2018-09-01T12:59:06.457Z,25.50
2018-09-01T13:01:36.424Z,25.00
2018-09-01T13:04:06.230Z,24.70
2018-09-01T13:06:35.940Z,24.50
2018-09-01T13:09:06.561Z,24.40
2018-09-01T13:11:36.382Z,24.40
2018-09-01T13:14:06.159Z,24.40
2018-09-01T13:16:35.849Z,24.70
2018-09-01T13:19:05.516Z,24.90
2018-09-01T13:21:35.250Z,25.10
2018-09-01T13:24:04.862Z,25.20
2018-09-01T13:26:34.583Z,25.10
2018-09-01T13:29:04.352Z,24.80
2018-09-01T13:31:34.210Z,24.70
2018-09-01T13:34:03.747Z,24.60
2018-09-01T13:36:33.483Z,24.60
2018-09-01T13:39:04.968Z,24.60
2018-09-01T13:41:34.652Z,24.80
2018-09-01T13:44:04.461Z,25.00
2018-09-01T13:46:34.383Z,25.00
2018-09-01T13:49:04.100Z,24.90
2018-09-01T13:51:33.931Z,24.80
2018-09-01T13:54:03.826Z,24.50
2018-09-01T13:56:33.363Z,24.30
2018-09-01T13:59:03.146Z,24.10
2018-09-01T14:01:32.824Z,23.70
2018-09-01T14:04:03.065Z,23.80
2018-09-01T14:06:32.656Z,23.90
2018-09-01T14:09:02.322Z,24.00
2018-09-01T14:11:31.970Z,23.90
2018-09-01T14:14:01.697Z,23.90
2018-09-01T14:16:31.422Z,23.90
2018-09-01T14:19:01.259Z,23.80
2018-09-01T14:21:31.047Z,24.00
2018-09-01T14:24:00.873Z,24.00
2018-09-01T14:26:30.555Z,24.10
2018-09-01T14:29:00.349Z,24.20
2018-09-01T14:31:32.872Z,24.20
2018-09-01T14:34:02.410Z,24.30
2018-09-01T14:36:32.297Z,24.20
2018-09-01T14:39:02.537Z,24.30
2018-09-01T14:41:32.209Z,24.10
2018-09-01T14:44:02.026Z,24.20
2018-09-01T14:46:31.648Z,24.50
2018-09-01T14:49:01.683Z,24.60
2018-09-01T14:51:31.462Z,24.60
2018-09-01T14:54:01.426Z,24.50
2018-09-01T14:56:31.333Z,24.40
2018-09-01T14:59:00.903Z,24.30
2018-09-01T15:01:30.623Z,24.30
2018-09-01T15:04:00.331Z,24.30
2018-09-01T15:06:30.125Z,24.00
2018-09-01T15:08:59.862Z,24.00
2018-09-01T15:11:29.457Z,24.10
2018-09-01T15:13:59.883Z,24.30
2018-09-01T15:16:29.885Z,24.30
2018-09-01T15:18:59.544Z,24.30
2018-09-01T15:21:29.111Z,24.00
2018-09-01T15:23:58.906Z,23.80
2018-09-01T15:26:28.629Z,23.70
2018-09-01T15:28:58.415Z,23.50
2018-09-01T15:31:28.101Z,23.50
2018-09-01T15:33:57.762Z,23.50
2018-09-01T15:36:28.636Z,23.60
2018-09-01T15:38:58.497Z,23.60
2018-09-01T15:41:28.233Z,23.50
2018-09-01T15:43:57.925Z,23.40
2018-09-01T15:46:27.681Z,23.40
2018-09-01T15:48:57.442Z,23.30
2018-09-01T15:51:27.277Z,23.40
2018-09-01T15:53:57.150Z,23.40
2018-09-01T15:56:26.959Z,23.40
2018-09-01T15:58:56.568Z,23.30
2018-09-01T16:01:26.400Z,23.30
2018-09-01T16:03:56.094Z,23.10
2018-09-01T16:06:25.789Z,22.90
2018-09-01T16:08:55.645Z,22.90
2018-09-01T16:11:25.240Z,22.80
2018-09-01T16:13:55.059Z,22.50
2018-09-01T16:16:25.351Z,22.50
2018-09-01T16:18:55.104Z,22.50
2018-09-01T16:21:24.903Z,22.50
2018-09-01T16:23:54.737Z,22.40
2018-09-01T16:26:24.632Z,22.40
2018-09-01T16:28:54.754Z,22.40
2018-09-01T16:31:24.683Z,22.30
2018-09-01T16:33:55.264Z,22.10
2018-09-01T16:36:25.317Z,22.10
2018-09-01T16:38:55.316Z,21.90
2018-09-01T16:41:25.908Z,21.80
2018-09-01T16:43:56.371Z,21.70
2018-09-01T16:46:26.493Z,21.60
2018-09-01T16:48:56.951Z,21.50
2018-09-01T16:51:27.054Z,21.40
2018-09-01T16:53:56.746Z,21.30
2018-09-01T16:56:26.656Z,21.30
2018-09-01T16:58:56.570Z,21.20
2018-09-01T17:01:26.442Z,21.10
2018-09-01T17:03:56.194Z,21.00
2018-09-01T17:06:26.076Z,21.00
2018-09-01T17:08:55.853Z,20.90
2018-09-01T17:11:25.518Z,20.80
2018-09-01T17:13:55.254Z,20.60
2018-09-01T17:16:25.017Z,20.50
2018-09-01T17:18:54.637Z,20.30
2018-09-01T17:21:24.402Z,20.10
2018-09-01T17:23:54.321Z,20.00
2018-09-01T17:26:23.883Z,19.90
2018-09-01T17:28:53.979Z,19.70
2018-09-01T17:31:24.317Z,19.60
2018-09-01T17:33:54.416Z,19.40
2018-09-01T17:36:24.183Z,19.30
2018-09-01T17:38:53.916Z,19.10
2018-09-01T17:41:23.662Z,19.00
2018-09-01T17:43:53.282Z,18.90
2018-09-01T17:46:22.922Z,18.70
2018-09-01T17:48:52.876Z,18.60
2018-09-01T17:51:22.524Z,18.50
2018-09-01T17:53:52.307Z,18.30
2018-09-01T17:56:21.983Z,18.20
2018-09-01T17:58:51.757Z,18.00
2018-09-01T18:01:23.050Z,17.80
2018-09-01T18:03:53.074Z,17.70
2018-09-01T18:06:22.987Z,17.60
2018-09-01T18:08:52.678Z,17.50
2018-09-01T18:11:22.494Z,17.40
2018-09-01T18:13:52.187Z,17.30
2018-09-01T18:16:21.874Z,17.10
2018-09-01T18:18:51.559Z,17.00
2018-09-01T18:21:21.180Z,16.90
2018-09-01T18:23:50.913Z,16.80
2018-09-01T18:26:20.444Z,16.60
2018-09-01T18:28:50.166Z,16.50
2018-09-01T18:31:19.646Z,16.40
2018-09-01T18:33:49.424Z,16.30
2018-09-01T18:36:19.052Z,16.10
2018-09-01T18:38:49.102Z,16.00
2018-09-01T18:41:18.814Z,16.00
2018-09-01T18:43:48.569Z,15.80
2018-09-01T18:46:18.175Z,15.70
2018-09-01T18:48:48.328Z,15.60
2018-09-01T18:51:17.832Z,15.50
2018-09-01T18:53:47.641Z,15.40
2018-09-01T18:56:17.370Z,15.40
2018-09-01T18:58:47.128Z,15.30
2018-09-01T19:01:18.671Z,15.30
2018-09-01T19:03:48.344Z,15.20
2018-09-01T19:06:18.288Z,15.10
2018-09-01T19:08:47.882Z,15.00
2018-09-01T19:11:17.468Z,15.00
2018-09-01T19:13:53.724Z,14.90
2018-09-01T19:16:23.438Z,14.90
2018-09-01T19:18:53.416Z,14.80
2018-09-01T19:21:23.306Z,14.80
2018-09-01T19:23:59.649Z,14.70
2018-09-01T19:26:33.302Z,14.70
2018-09-01T19:29:03.001Z,14.60
2018-09-01T19:31:33.490Z,14.60
2018-09-01T19:34:03.260Z,14.60
2018-09-01T19:37:43.808Z,14.60
2018-09-01T19:40:13.543Z,14.50
2018-09-01T19:42:48.013Z,14.40
2018-09-01T19:45:17.819Z,14.40
2018-09-01T19:47:47.636Z,14.40
2018-09-01T19:50:17.660Z,14.30
2018-09-01T19:52:47.413Z,14.30
2018-09-01T19:55:17.370Z,14.30
2018-09-01T19:57:47.020Z,14.20
2018-09-01T20:00:16.776Z,14.20
2018-09-01T20:02:46.547Z,14.20
2018-09-01T20:05:16.278Z,14.10
2018-09-01T20:07:45.912Z,14.20
2018-09-01T20:10:15.778Z,14.10
2018-09-01T20:12:45.680Z,14.10
2018-09-01T20:15:15.299Z,14.10
2018-09-01T20:17:44.952Z,14.10
2018-09-01T20:20:14.586Z,14.10
2018-09-01T20:22:44.364Z,14.00
2018-09-01T20:25:14.042Z,14.10
2018-09-01T20:27:43.794Z,14.10
2018-09-01T20:30:13.304Z,14.00
2018-09-01T20:32:43.058Z,14.00
2018-09-01T20:35:17.773Z,14.00
2018-09-01T20:37:47.400Z,14.00
2018-09-01T20:40:16.944Z,14.00
2018-09-01T20:42:46.674Z,14.00
2018-09-01T20:45:16.608Z,14.00
2018-09-01T20:47:46.301Z,14.00
2018-09-01T20:50:15.961Z,14.10
2018-09-01T20:52:45.555Z,14.10
2018-09-01T20:55:15.386Z,14.10
2018-09-01T20:57:46.111Z,14.00
2018-09-01T21:00:15.781Z,14.10
2018-09-01T21:02:45.542Z,14.10
2018-09-01T21:05:15.210Z,14.10
2018-09-01T21:07:44.821Z,14.20
2018-09-01T21:10:14.524Z,14.20
2018-09-01T21:12:44.361Z,14.30
2018-09-01T21:15:14.049Z,14.30
2018-09-01T21:17:43.673Z,14.20
2018-09-01T21:20:13.458Z,14.30
2018-09-01T21:22:43.300Z,14.20
2018-09-01T21:25:13.102Z,14.20
2018-09-01T21:27:45.905Z,14.30
2018-09-01T21:30:15.718Z,14.30
2018-09-01T21:32:45.785Z,14.30
2018-09-01T21:35:15.423Z,14.30
2018-09-01T21:37:45.085Z,14.30
2018-09-01T21:40:15.205Z,14.30
2018-09-01T21:42:45.197Z,14.40
2018-09-01T21:45:14.859Z,14.30
2018-09-01T21:47:44.937Z,14.40
2018-09-01T21:50:14.678Z,14.30
2018-09-01T21:52:44.422Z,14.40
2018-09-01T21:55:13.926Z,14.50
2018-09-01T21:57:43.619Z,14.50
2018-09-01T22:00:13.433Z,14.60
2018-09-01T22:02:43.042Z,14.60
2018-09-01T22:05:15.529Z,14.70
2018-09-01T22:07:46.430Z,14.80
2018-09-01T22:10:16.085Z,14.80
2018-09-01T22:12:45.685Z,14.80
2018-09-01T22:15:15.356Z,14.80
2018-09-01T22:17:45.020Z,14.90
2018-09-01T22:20:14.782Z,15.00
2018-09-01T22:22:44.397Z,15.00
2018-09-01T22:25:14.037Z,14.90
2018-09-01T22:27:43.829Z,14.90
2018-09-01T22:30:13.673Z,15.00
2018-09-01T22:32:44.115Z,15.00
2018-09-01T22:35:13.704Z,15.00
2018-09-01T22:37:43.386Z,15.10
2018-09-01T22:40:13.176Z,15.10
2018-09-01T22:42:42.694Z,15.30
2018-09-01T22:45:12.610Z,15.20
2018-09-01T22:47:42.252Z,15.20
2018-09-01T22:50:11.840Z,15.20
2018-09-01T22:52:41.423Z,15.30
2018-09-01T22:55:11.026Z,15.30
2018-09-01T22:57:40.782Z,15.30
2018-09-01T23:00:10.440Z,15.30
2018-09-01T23:02:40.075Z,15.30
2018-09-01T23:05:09.670Z,15.20
2018-09-01T23:07:39.277Z,15.20
2018-09-01T23:10:08.924Z,15.20
2018-09-01T23:12:38.887Z,15.20
2018-09-01T23:15:08.830Z,15.10
2018-09-01T23:17:38.461Z,15.00
2018-09-01T23:20:08.248Z,15.00
2018-09-01T23:22:37.852Z,15.00
2018-09-01T23:25:07.684Z,15.00
2018-09-01T23:27:37.414Z,15.10
2018-09-01T23:30:07.110Z,15.00
2018-09-01T23:32:36.776Z,15.00
2018-09-01T23:35:06.538Z,15.00
2018-09-01T23:37:36.304Z,15.00
2018-09-01T23:40:06.177Z,14.90
2018-09-01T23:42:35.779Z,14.80
2018-09-01T23:45:05.362Z,14.80
2018-09-01T23:47:35.243Z,14.80
2018-09-01T23:50:05.191Z,14.80
2018-09-01T23:52:34.985Z,14.90
2018-09-01T23:55:04.688Z,14.80
2018-09-01T23:57:34.382Z,14.70
